createdAt,value
2018-05-25T00:00:44.705Z,0.80
2018-05-25T00:03:12.210Z,1.17
2018-05-25T00:05:39.775Z,1.10
2018-05-25T00:08:07.249Z,1.17
2018-05-25T00:10:34.763Z,1.45
2018-05-25T00:13:02.264Z,0.93
2018-05-25T00:15:29.779Z,1.00
2018-05-25T00:17:57.258Z,0.90
2018-05-25T00:20:24.800Z,1.30
2018-05-25T00:22:52.289Z,1.25
2018-05-25T00:25:19.770Z,1.02
2018-05-25T00:27:47.267Z,1.10
2018-05-25T00:30:14.892Z,1.05
2018-05-25T00:32:42.401Z,1.00
2018-05-25T00:35:09.877Z,1.65
2018-05-25T00:37:37.477Z,0.93
2018-05-25T00:40:05.000Z,1.10
2018-05-25T00:42:32.521Z,1.20
2018-05-25T00:45:00.036Z,1.48
2018-05-25T00:47:27.548Z,1.48
2018-05-25T00:49:55.064Z,1.23
2018-05-25T00:52:22.570Z,0.80
2018-05-25T00:55:01.930Z,1.08
2018-05-25T00:57:29.431Z,1.00
2018-05-25T00:59:56.932Z,1.20
2018-05-25T01:02:24.400Z,1.58
2018-05-25T01:04:51.903Z,0.77
2018-05-25T01:07:19.401Z,1.00
2018-05-25T01:09:46.909Z,0.98
2018-05-25T01:12:14.425Z,1.08
2018-05-25T01:14:41.939Z,1.45
2018-05-25T01:17:09.420Z,1.10
2018-05-25T01:19:36.909Z,1.30
2018-05-25T01:22:04.410Z,1.30
2018-05-25T01:24:31.903Z,1.37
2018-05-25T01:26:59.445Z,1.00
2018-05-25T01:29:26.999Z,1.17
2018-05-25T01:31:54.529Z,1.10
2018-05-25T01:34:22.012Z,1.20
2018-05-25T01:36:49.541Z,1.00
2018-05-25T01:39:17.046Z,1.10
2018-05-25T01:41:44.571Z,1.20
2018-05-25T01:44:12.063Z,1.02
2018-05-25T01:46:39.572Z,1.80
2018-05-25T01:49:07.113Z,1.23
2018-05-25T01:51:34.581Z,1.25
2018-05-25T01:54:02.081Z,0.90
2018-05-25T01:56:29.597Z,1.25
2018-05-25T01:58:57.102Z,0.90
2018-05-25T02:01:24.591Z,1.92
2018-05-25T02:03:52.203Z,1.00
2018-05-25T02:06:19.706Z,1.15
2018-05-25T02:08:47.224Z,1.35
2018-05-25T02:11:14.767Z,1.25
2018-05-25T02:13:42.746Z,1.00
2018-05-25T02:16:10.263Z,1.55
2018-05-25T02:18:37.803Z,1.00
2018-05-25T02:21:05.365Z,1.33
2018-05-25T02:23:32.860Z,1.02
2018-05-25T02:26:00.382Z,1.30
2018-05-25T02:28:27.867Z,1.05
2018-05-25T02:30:55.373Z,0.97
2018-05-25T02:33:22.877Z,1.40
2018-05-25T02:35:50.352Z,1.57
2018-05-25T02:38:17.867Z,1.30
2018-05-25T02:40:45.410Z,1.30
2018-05-25T02:43:12.994Z,1.13
2018-05-25T02:45:40.501Z,1.00
2018-05-25T02:48:07.969Z,1.00
2018-05-25T02:50:35.492Z,1.23
2018-05-25T02:53:03.039Z,1.10
2018-05-25T02:55:30.579Z,1.00
2018-05-25T02:57:58.072Z,1.17
2018-05-25T03:00:25.568Z,1.20
2018-05-25T03:02:53.079Z,1.07
2018-05-25T03:05:20.608Z,1.40
2018-05-25T03:07:48.136Z,1.00
2018-05-25T03:10:15.620Z,1.07
2018-05-25T03:12:43.139Z,1.20
2018-05-25T03:15:10.636Z,1.13
2018-05-25T03:17:38.744Z,1.80
2018-05-25T03:20:06.227Z,1.30
2018-05-25T03:22:33.718Z,1.20
2018-05-25T03:25:01.183Z,1.47
2018-05-25T03:27:28.726Z,1.40
2018-05-25T03:29:56.251Z,1.20
2018-05-25T03:32:24.334Z,1.03
2018-05-25T03:34:51.833Z,1.20
2018-05-25T03:37:19.335Z,1.80
2018-05-25T03:39:47.040Z,1.60
2018-05-25T03:42:14.512Z,1.50
2018-05-25T03:44:42.022Z,1.23
2018-05-25T03:47:09.536Z,1.30
2018-05-25T03:49:37.134Z,1.03
2018-05-25T03:52:04.643Z,1.37
2018-05-25T03:54:32.114Z,1.57
2018-05-25T03:56:59.615Z,1.97
2018-05-25T03:59:38.869Z,1.30
2018-05-25T04:02:06.365Z,1.10
2018-05-25T04:04:34.474Z,1.30
2018-05-25T04:07:01.970Z,1.62
2018-05-25T04:09:29.443Z,1.40
2018-05-25T04:11:56.982Z,1.20
2018-05-25T04:14:24.633Z,1.40
2018-05-25T04:16:52.145Z,1.45
2018-05-25T04:19:19.640Z,1.20
2018-05-25T04:21:47.191Z,1.40
2018-05-25T04:24:14.696Z,1.12
2018-05-25T04:26:42.228Z,1.83
2018-05-25T04:29:09.707Z,1.23
2018-05-25T04:31:37.215Z,1.20
2018-05-25T04:34:04.747Z,1.40
2018-05-25T04:36:32.266Z,1.20
2018-05-25T04:38:59.842Z,1.50
2018-05-25T04:41:27.321Z,1.25
2018-05-25T04:43:54.858Z,1.40
2018-05-25T04:46:22.381Z,1.50
2018-05-25T04:48:50.276Z,1.53
2018-05-25T04:51:17.744Z,1.40
2018-05-25T04:53:45.299Z,1.60
2018-05-25T04:56:12.901Z,1.40
2018-05-25T04:58:40.405Z,1.55
2018-05-25T05:01:07.911Z,1.50
2018-05-25T05:03:35.412Z,1.10
2018-05-25T05:06:02.919Z,1.20
2018-05-25T05:08:30.469Z,1.60
2018-05-25T05:10:57.945Z,1.60
2018-05-25T05:13:25.470Z,1.50
2018-05-25T05:15:53.020Z,2.03
2018-05-25T05:18:20.541Z,1.13
2018-05-25T05:20:48.054Z,1.30
2018-05-25T05:23:15.578Z,1.40
2018-05-25T05:25:43.167Z,1.30
2018-05-25T05:28:10.634Z,1.70
2018-05-25T05:30:38.183Z,1.50
2018-05-25T05:33:05.679Z,2.28
2018-05-25T05:35:33.187Z,1.63
2018-05-25T05:38:00.710Z,1.67
2018-05-25T05:40:28.212Z,2.13
2018-05-25T05:42:55.706Z,1.40
2018-05-25T05:45:23.208Z,1.43
2018-05-25T05:47:50.700Z,1.33
2018-05-25T05:50:18.933Z,1.33
2018-05-25T05:52:46.485Z,1.50
2018-05-25T05:55:13.994Z,1.62
2018-05-25T05:57:41.533Z,1.40
2018-05-25T06:00:10.817Z,1.70
2018-05-25T06:02:38.374Z,1.97
2018-05-25T06:05:05.924Z,1.60
2018-05-25T06:07:33.480Z,1.40
2018-05-25T06:10:01.090Z,1.63
2018-05-25T06:12:28.808Z,1.70
2018-05-25T06:14:56.411Z,2.40
2018-05-25T06:17:23.955Z,1.83
2018-05-25T06:19:51.468Z,1.30
2018-05-25T06:22:19.013Z,1.75
2018-05-25T06:24:46.509Z,1.48
2018-05-25T06:27:14.088Z,1.80
2018-05-25T06:29:41.593Z,1.48
2018-05-25T06:32:09.143Z,1.50
2018-05-25T06:34:36.739Z,1.50
2018-05-25T06:37:04.222Z,1.58
2018-05-25T06:39:31.813Z,1.70
2018-05-25T06:41:59.413Z,1.48
2018-05-25T06:44:27.048Z,1.62
2018-05-25T06:46:54.677Z,1.73
2018-05-25T06:49:22.267Z,1.75
2018-05-25T06:51:49.810Z,1.40
2018-05-25T06:54:17.521Z,1.30
2018-05-25T06:56:45.087Z,1.50
2018-05-25T06:59:12.635Z,1.45
2018-05-25T07:01:40.390Z,1.75
2018-05-25T07:04:07.909Z,1.45
2018-05-25T07:06:35.449Z,1.42
2018-05-25T07:09:03.039Z,1.55
2018-05-25T07:11:30.575Z,1.92
2018-05-25T07:13:58.062Z,2.05
2018-05-25T07:16:25.609Z,1.62
2018-05-25T07:18:53.211Z,1.70
2018-05-25T07:21:20.738Z,1.50
2018-05-25T07:23:48.263Z,1.92
2018-05-25T07:26:15.779Z,1.80
2018-05-25T07:28:43.312Z,1.40
2018-05-25T07:31:10.804Z,1.67
2018-05-25T07:33:38.289Z,1.42
2018-05-25T07:36:05.829Z,1.83
2018-05-25T07:38:33.474Z,1.90
2018-05-25T07:41:01.005Z,1.70
2018-05-25T07:43:28.495Z,1.25
2018-05-25T07:45:56.188Z,2.00
2018-05-25T07:48:24.639Z,1.15
2018-05-25T07:50:52.131Z,1.33
2018-05-25T07:53:19.640Z,1.35
2018-05-25T07:55:47.206Z,2.10
2018-05-25T07:58:14.744Z,1.65
2018-05-25T08:00:42.537Z,1.50
2018-05-25T08:03:10.150Z,1.52
2018-05-25T08:05:38.218Z,1.65
2018-05-25T08:08:06.063Z,1.58
2018-05-25T08:10:34.348Z,1.50
2018-05-25T08:13:02.068Z,1.65
2018-05-25T08:15:29.917Z,1.48
2018-05-25T08:17:57.582Z,1.30
2018-05-25T08:20:25.268Z,1.60
2018-05-25T08:22:52.939Z,1.60
2018-05-25T08:25:20.530Z,1.50
2018-05-25T08:27:48.068Z,1.50
2018-05-25T08:30:15.564Z,1.87
2018-05-25T08:32:43.094Z,1.60
2018-05-25T08:35:10.643Z,1.42
2018-05-25T08:37:38.111Z,1.77
2018-05-25T08:40:05.744Z,1.40
2018-05-25T08:42:33.778Z,1.40
2018-05-25T08:45:01.647Z,1.77
2018-05-25T08:47:30.512Z,2.05
2018-05-25T08:49:58.288Z,1.80
2018-05-25T08:52:25.840Z,1.58
2018-05-25T08:54:53.360Z,1.48
2018-05-25T08:57:20.883Z,1.65
2018-05-25T08:59:48.395Z,1.58
2018-05-25T09:02:15.907Z,1.30
2018-05-25T09:04:43.412Z,1.40
2018-05-25T09:07:11.005Z,1.80
2018-05-25T09:09:38.654Z,1.60
2018-05-25T09:12:06.224Z,1.55
2018-05-25T09:14:33.751Z,1.80
2018-05-25T09:17:01.328Z,1.60
2018-05-25T09:19:29.012Z,1.42
2018-05-25T09:21:56.607Z,1.60
2018-05-25T09:24:24.068Z,1.70
2018-05-25T09:26:51.604Z,1.62
2018-05-25T09:29:19.287Z,1.52
2018-05-25T09:31:46.859Z,1.20
2018-05-25T09:34:15.160Z,1.20
2018-05-25T09:36:43.663Z,1.42
2018-05-25T09:39:11.171Z,1.40
2018-05-25T09:41:38.729Z,1.27
2018-05-25T09:44:06.241Z,1.20
2018-05-25T09:46:33.732Z,1.33
2018-05-25T09:49:01.308Z,1.37
2018-05-25T09:51:28.856Z,1.37
2018-05-25T09:53:56.333Z,1.25
2018-05-25T09:56:23.832Z,1.17
2018-05-25T09:58:51.367Z,1.20
2018-05-25T10:01:18.902Z,1.20
2018-05-25T10:03:46.427Z,1.33
2018-05-25T10:06:13.969Z,1.50
2018-05-25T10:08:41.505Z,1.27
2018-05-25T10:11:08.967Z,1.45
2018-05-25T10:13:36.531Z,1.23
2018-05-25T10:16:04.088Z,1.42
2018-05-25T10:18:31.593Z,1.27
2018-05-25T10:20:59.073Z,1.30
2018-05-25T10:23:26.623Z,1.30
2018-05-25T10:25:54.174Z,1.60
2018-05-25T10:28:21.688Z,1.30
2018-05-25T10:30:49.222Z,1.30
2018-05-25T10:33:16.799Z,1.37
2018-05-25T10:35:44.317Z,1.70
2018-05-25T10:38:11.815Z,1.58
2018-05-25T10:40:39.348Z,1.33
2018-05-25T10:43:06.860Z,1.20
2018-05-25T10:45:34.351Z,1.50
2018-05-25T10:48:01.893Z,1.37
2018-05-25T10:50:29.389Z,1.17
2018-05-25T10:52:56.980Z,1.40
2018-05-25T10:55:24.502Z,1.55
2018-05-25T10:57:51.982Z,1.42
2018-05-25T11:00:19.517Z,1.50
2018-05-25T11:02:47.007Z,1.30
2018-05-25T11:05:14.543Z,1.40
2018-05-25T11:07:42.032Z,1.37
2018-05-25T11:10:09.570Z,1.15
2018-05-25T11:12:37.118Z,1.33
2018-05-25T11:15:04.649Z,1.30
2018-05-25T11:17:32.135Z,1.85
2018-05-25T11:19:59.632Z,1.30
2018-05-25T11:22:27.171Z,1.33
2018-05-25T11:24:54.663Z,1.25
2018-05-25T11:27:22.190Z,1.60
2018-05-25T11:29:49.695Z,1.65
2018-05-25T11:32:17.298Z,1.15
2018-05-25T11:34:44.807Z,1.23
2018-05-25T11:37:12.369Z,1.50
2018-05-25T11:39:39.896Z,1.40
2018-05-25T11:42:07.512Z,1.83
2018-05-25T11:44:35.010Z,1.35
2018-05-25T11:47:02.502Z,1.40
2018-05-25T11:49:30.017Z,1.58
2018-05-25T11:51:57.556Z,1.50
2018-05-25T11:54:25.080Z,1.25
2018-05-25T11:56:52.582Z,1.20
2018-05-25T11:59:20.097Z,1.42
2018-05-25T12:01:47.659Z,1.35
2018-05-25T12:04:18.549Z,1.30
2018-05-25T12:06:46.768Z,1.40
2018-05-25T12:09:14.297Z,1.50
2018-05-25T12:11:44.522Z,1.50
2018-05-25T12:14:15.807Z,1.40
2018-05-25T12:16:54.856Z,1.45
2018-05-25T12:19:32.180Z,1.62
2018-05-25T12:22:01.028Z,1.10
2018-05-25T12:24:28.519Z,1.52
2018-05-25T12:26:56.077Z,1.37
2018-05-25T12:29:23.637Z,1.25
2018-05-25T12:34:55.289Z,1.33
2018-05-25T12:37:22.820Z,1.35
2018-05-25T12:39:53.346Z,1.12
2018-05-25T12:42:20.861Z,1.45
2018-05-25T12:45:00.196Z,1.27
2018-05-25T12:47:27.720Z,1.60
2018-05-25T12:49:55.201Z,1.00
2018-05-25T12:52:22.721Z,1.30
2018-05-25T12:54:50.256Z,1.27
2018-05-25T12:57:17.752Z,1.40
2018-05-25T12:59:45.337Z,1.65
2018-05-25T13:02:12.855Z,1.12
2018-05-25T13:04:40.395Z,1.52
2018-05-25T13:07:07.880Z,1.50
2018-05-25T13:09:35.372Z,1.30
2018-05-25T13:12:02.868Z,1.35
2018-05-25T13:14:30.373Z,1.27
2018-05-25T13:16:57.950Z,1.10
2018-05-25T13:19:25.467Z,1.10
2018-05-25T13:21:53.188Z,1.10
2018-05-25T13:24:20.937Z,1.25
2018-05-25T13:26:48.466Z,1.42
2018-05-25T13:29:16.611Z,1.23
2018-05-25T13:31:44.106Z,1.10
2018-05-25T13:34:11.621Z,2.85
2018-05-25T13:36:39.100Z,1.02
2018-05-25T13:39:06.684Z,1.37
2018-05-25T13:41:34.153Z,1.27
2018-05-25T13:44:01.865Z,1.27
2018-05-25T13:46:29.455Z,1.37
2018-05-25T13:48:56.956Z,1.15
2018-05-25T13:51:24.469Z,1.45
2018-05-25T13:53:51.945Z,1.00
2018-05-25T13:56:19.441Z,1.30
2018-05-25T13:58:46.923Z,1.40
2018-05-25T14:01:14.926Z,1.90
2018-05-25T14:03:42.403Z,1.17
2018-05-25T14:06:09.957Z,1.80
2018-05-25T14:08:37.453Z,1.70
2018-05-25T14:11:04.977Z,1.40
2018-05-25T14:13:32.453Z,1.75
2018-05-25T14:15:59.940Z,1.45
2018-05-25T14:18:27.433Z,1.30
2018-05-25T14:20:54.923Z,1.37
2018-05-25T14:23:22.421Z,1.55
2018-05-25T14:25:49.910Z,1.30
2018-05-25T14:28:17.430Z,1.25
2018-05-25T14:30:45.050Z,1.25
2018-05-25T14:33:12.554Z,1.40
2018-05-25T14:35:40.033Z,1.33
2018-05-25T14:38:07.519Z,1.25
2018-05-25T14:40:35.041Z,2.03
2018-05-25T14:43:02.526Z,1.20
2018-05-25T14:45:30.047Z,1.60
2018-05-25T14:47:57.510Z,1.50
2018-05-25T14:50:25.133Z,1.42
2018-05-25T14:52:52.642Z,1.45
2018-05-25T14:55:20.134Z,1.30
2018-05-25T14:57:47.654Z,1.37
2018-05-25T15:00:15.121Z,1.33
2018-05-25T15:02:42.667Z,1.20
2018-05-25T15:05:10.167Z,1.20
2018-05-25T15:07:37.662Z,1.55
2018-05-25T15:10:05.161Z,1.25
2018-05-25T15:12:32.712Z,1.12
2018-05-25T15:15:00.238Z,1.42
2018-05-25T15:17:27.754Z,1.00
2018-05-25T15:19:55.304Z,1.20
2018-05-25T15:22:22.939Z,1.20
2018-05-25T15:24:51.037Z,1.25
2018-05-25T15:27:18.545Z,1.48
2018-05-25T15:29:46.039Z,1.60
2018-05-25T15:32:13.559Z,1.55
2018-05-25T15:34:41.080Z,0.95
2018-05-25T15:37:08.587Z,1.27
2018-05-25T15:39:36.101Z,1.30
2018-05-25T15:42:03.721Z,1.17
2018-05-25T15:44:31.192Z,1.10
2018-05-25T15:46:58.698Z,1.00
2018-05-25T15:49:26.225Z,0.95
2018-05-25T15:51:53.738Z,1.00
2018-05-25T15:54:21.245Z,1.30
2018-05-25T15:56:48.727Z,0.82
2018-05-25T15:59:16.251Z,0.95
2018-05-25T16:01:43.725Z,1.33
2018-05-25T16:04:11.236Z,1.27
2018-05-25T16:06:38.785Z,1.00
2018-05-25T16:09:06.274Z,1.00
2018-05-25T16:11:33.756Z,0.82
2018-05-25T16:14:01.294Z,1.08
2018-05-25T16:16:28.767Z,1.17
2018-05-25T16:18:56.295Z,1.23
2018-05-25T16:21:23.788Z,1.30
2018-05-25T16:23:51.270Z,1.10
2018-05-25T16:26:18.810Z,1.00
2018-05-25T16:28:46.307Z,0.68
2018-05-25T16:31:13.853Z,0.88
2018-05-25T16:33:41.355Z,0.85
2018-05-25T16:36:08.868Z,0.90
2018-05-25T16:38:36.345Z,0.90
2018-05-25T16:41:03.896Z,0.80
2018-05-25T16:43:31.401Z,0.90
2018-05-25T16:45:58.943Z,1.00
2018-05-25T16:48:26.445Z,1.12
2018-05-25T16:50:53.991Z,0.65
2018-05-25T16:53:21.500Z,0.70
2018-05-25T16:55:49.006Z,1.10
2018-05-25T16:58:16.543Z,1.00
2018-05-25T17:00:44.044Z,1.10
2018-05-25T17:03:11.652Z,0.73
2018-05-25T17:05:39.158Z,1.10
2018-05-25T17:08:06.706Z,1.00
2018-05-25T17:10:34.225Z,0.95
2018-05-25T17:13:01.784Z,0.70
2018-05-25T17:15:29.271Z,1.00
2018-05-25T17:17:56.809Z,1.05
2018-05-25T17:20:24.323Z,0.80
2018-05-25T17:22:51.858Z,1.08
2018-05-25T17:25:19.357Z,1.02
2018-05-25T17:27:46.829Z,1.17
2018-05-25T17:30:14.461Z,0.80
2018-05-25T17:32:41.924Z,0.90
2018-05-25T17:35:09.436Z,0.80
2018-05-25T17:37:36.990Z,0.80
2018-05-25T17:40:04.497Z,1.00
2018-05-25T17:42:31.971Z,0.90
2018-05-25T17:44:59.500Z,0.90
2018-05-25T17:47:27.035Z,0.98
2018-05-25T17:49:54.658Z,0.80
2018-05-25T17:52:22.191Z,0.90
2018-05-25T17:54:49.748Z,1.10
2018-05-25T17:57:17.268Z,0.70
2018-05-25T17:59:44.893Z,0.88
2018-05-25T18:02:12.391Z,1.02
2018-05-25T18:04:39.923Z,0.80
2018-05-25T18:07:07.415Z,1.00
2018-05-25T18:09:34.969Z,0.73
2018-05-25T18:12:02.463Z,1.15
2018-05-25T18:14:29.972Z,0.80
2018-05-25T18:16:57.479Z,0.90
2018-05-25T18:19:24.950Z,1.00
2018-05-25T18:21:52.467Z,1.00
2018-05-25T18:24:21.039Z,0.93
2018-05-25T18:26:48.557Z,0.70
2018-05-25T18:29:17.122Z,0.77
2018-05-25T18:31:44.643Z,1.10
2018-05-25T18:34:13.350Z,0.70
2018-05-25T18:36:41.837Z,0.80
2018-05-25T18:39:10.236Z,0.62
2018-05-25T18:41:37.731Z,0.70
2018-05-25T18:44:08.021Z,0.65
2018-05-25T18:46:35.554Z,0.70
2018-05-25T18:49:03.103Z,0.62
2018-05-25T18:51:30.640Z,0.70
2018-05-25T18:54:10.030Z,0.90
2018-05-25T18:56:38.436Z,0.73
2018-05-25T18:59:05.984Z,0.75
2018-05-25T19:01:33.652Z,0.80
2018-05-25T19:04:06.784Z,0.65
2018-05-25T19:06:34.309Z,0.80
2018-05-25T19:09:01.818Z,0.62
2018-05-25T19:11:29.392Z,0.80
2018-05-25T19:13:56.943Z,0.85
2018-05-25T19:16:24.450Z,0.80
2018-05-25T19:18:52.448Z,0.98
2018-05-25T19:21:19.960Z,0.70
2018-05-25T19:23:47.453Z,1.10
2018-05-25T19:26:14.983Z,0.70
2018-05-25T19:28:42.484Z,0.80
2018-05-25T19:31:10.086Z,0.68
2018-05-25T19:33:37.597Z,0.90
2018-05-25T19:36:05.122Z,0.73
2018-05-25T19:38:32.657Z,1.00
2018-05-25T19:41:00.158Z,0.80
2018-05-25T19:43:27.679Z,0.85
2018-05-25T19:45:55.157Z,1.00
2018-05-25T19:48:22.707Z,0.80
2018-05-25T19:50:50.235Z,0.70
2018-05-25T19:53:17.727Z,0.70
2018-05-25T19:55:45.263Z,0.60
2018-05-25T19:58:12.802Z,0.60
2018-05-25T20:00:40.276Z,0.73
2018-05-25T20:03:07.748Z,0.70
2018-05-25T20:05:35.287Z,1.23
2018-05-25T20:08:02.803Z,1.10
2018-05-25T20:10:30.325Z,0.77
2018-05-25T20:12:57.800Z,0.98
2018-05-25T20:15:25.345Z,0.80
2018-05-25T20:17:52.852Z,0.60
2018-05-25T20:20:20.371Z,0.60
2018-05-25T20:22:47.880Z,0.82
2018-05-25T20:25:15.381Z,0.90
2018-05-25T20:27:42.885Z,0.95
2018-05-25T20:30:10.739Z,1.05
2018-05-25T20:32:38.229Z,0.85
2018-05-25T20:35:05.804Z,0.82
2018-05-25T20:37:33.332Z,0.85
2018-05-25T20:40:00.838Z,0.90
2018-05-25T20:42:28.416Z,0.90
2018-05-25T20:44:55.897Z,0.82
2018-05-25T20:47:23.374Z,0.90
2018-05-25T20:49:50.899Z,0.75
2018-05-25T20:52:18.475Z,0.85
2018-05-25T20:54:46.011Z,0.90
2018-05-25T20:57:13.489Z,0.65
2018-05-25T20:59:40.988Z,0.90
2018-05-25T21:02:08.530Z,0.80
2018-05-25T21:04:36.018Z,0.80
2018-05-25T21:07:03.556Z,0.73
2018-05-25T21:09:31.064Z,0.80
2018-05-25T21:11:58.651Z,0.75
2018-05-25T21:14:26.125Z,0.70
2018-05-25T21:16:53.641Z,0.68
2018-05-25T21:19:21.157Z,0.95
2018-05-25T21:21:48.768Z,0.60
2018-05-25T21:24:16.269Z,0.80
2018-05-25T21:26:43.790Z,0.80
2018-05-25T21:29:11.297Z,1.00
2018-05-25T21:31:38.794Z,0.80
2018-05-25T21:34:06.274Z,0.60
2018-05-25T21:36:33.836Z,0.75
2018-05-25T21:39:01.366Z,0.88
2018-05-25T21:41:28.863Z,0.90
2018-05-25T21:43:56.371Z,1.00
2018-05-25T21:46:23.900Z,0.62
2018-05-25T21:48:51.437Z,1.00
2018-05-25T21:51:18.932Z,0.90
2018-05-25T21:53:46.438Z,0.90
2018-05-25T21:56:13.915Z,1.02
2018-05-25T21:58:41.420Z,1.12
2018-05-25T22:01:09.013Z,0.70
2018-05-25T22:03:36.494Z,0.82
2018-05-25T22:06:04.020Z,0.85
2018-05-25T22:08:31.554Z,0.80
2018-05-25T22:10:59.193Z,0.82
2018-05-25T22:13:26.721Z,0.80
2018-05-25T22:15:54.201Z,1.00
2018-05-25T22:18:21.718Z,1.00
2018-05-25T22:20:49.300Z,0.77
2018-05-25T22:23:16.816Z,0.77
2018-05-25T22:25:44.456Z,0.88
2018-05-25T22:28:12.004Z,1.20
2018-05-25T22:36:41.268Z,1.23
2018-05-25T22:45:43.152Z,0.80
2018-05-25T22:48:24.729Z,0.90
2018-05-25T22:53:59.384Z,1.12
2018-05-25T22:56:29.861Z,1.00
2018-05-25T22:58:57.372Z,0.90
2018-05-25T23:01:24.862Z,1.10
2018-05-25T23:03:52.485Z,1.20
2018-05-25T23:06:20.860Z,1.00
2018-05-25T23:08:48.367Z,1.08
2018-05-25T23:11:15.850Z,0.75
2018-05-25T23:13:43.355Z,1.20
2018-05-25T23:16:10.903Z,0.80
2018-05-25T23:18:38.454Z,1.12
2018-05-25T23:21:05.906Z,1.12
2018-05-25T23:23:33.452Z,1.00
2018-05-25T23:26:01.661Z,0.90
2018-05-25T23:28:29.170Z,0.93
2018-05-25T23:30:56.676Z,1.17
2018-05-25T23:33:24.148Z,0.90
2018-05-25T23:35:51.717Z,1.08
2018-05-25T23:38:20.176Z,1.08
2018-05-25T23:40:47.679Z,1.00
2018-05-25T23:43:15.173Z,1.40
2018-05-25T23:45:42.717Z,1.00
2018-05-25T23:48:10.221Z,1.83
2018-05-25T23:50:37.768Z,0.85
2018-05-25T23:53:05.302Z,1.00
2018-05-25T23:55:32.790Z,1.02
2018-05-25T23:58:00.308Z,1.02
